Aeroporto :
LOGIN :

Iscrizione | Disclaimer

   EN    FR    IT 

 










Sommario :    VFR   VFR Marginale   IFR   IFR Intensivo   IFR Molto Intensivo
Visibilità : 
Base nubi : 
>= 8 km
>= 3000ft
5 / 8 km
1000 / 3000 ft
1500m / 5 km
500 / 1000 ft
800 / 1500m
200 / 500 ft
< 800m
< 200 ft
Simboli :   Temporali  Nebbia  Neve Forte  Precipitazioni Forti  Vento > 20 kt
SIGMETs :   Varie  Temporali  Ghiacco  Turbolenza  Onda orograficha  Ceneri Vulcaniche






- Altitudine del aeroporto : 755 ft
- Codice IATA : DRS


EDDC - Dresden Klotzsche

ULTIMO METAR :
  • 071420Z 29007KT 250V330 CAVOK 19/05 Q1018 NOSIG

METARs OBSOLETI :
  • 071350Z 26010KT 210V320 CAVOK 20/05 Q1018 NOSIG
  • 071320Z 28009KT 230V330 CAVOK 20/05 Q1019 NOSIG
  • 071250Z 29010KT 240V330 9999 FEW049 19/06 Q1019 NOSIG
  • 071220Z 26011KT 230V320 9999 FEW048 18/06 Q1019 NOSIG
  • 071150Z 31010KT 220V350 9999 FEW046 19/06 Q1019 NOSIG

TAF TAF EDDC
Valido dal 07 a 12 ore il 08 a 12 ore UTC


071100Z 0712/0812 27010KT 9999 SCT030
BECMG 0716/0718 26005KT



MetMap, La meteo Aeronautica in un colpo d'occhio ! - Copyright ORBIFLY Dicembre 2007 - Disclaimer

ORBIFLY MET'MAP TEAM :

Programmazione e sviluppo : Alexandra Zaïnal
Concezione : Baudouin d'Aumeries
Aiuto per la programmazione : Marc-Olivier Méhu
Supporto tecnico e logistico : Manuel Goepfert
Aiuto per la traduzione : Arnaldo La Scala

Contatto : metmap@orbifly.com




FONTI E CREDITI :

   NOAA